Time;durP1;ratioP1;P1;durP2;ratioP2;P2;SDS_P1;SDS_P2;PMS_P1;PMS_P2;Temp;Humidity;BMP_temperature;BMP_pressure;BME280_temperature;BME280_humidity;BME280_pressure;Samples;Min_cycle;Max_cycle;Signal;HPM_P1;HPM_P2
2021/09/18 00:00:08;;;;;;;33.35;19.80;;;;;;;;;;5021499;28;20850;-74
2021/09/18 00:02:34;;;;;;;25.42;18.83;;;;;;;;;;5023068;28;20549;-74
2021/09/18 00:05:00;;;;;;;32.88;20.15;;;;;;;;;;5023068;28;20059;-74
2021/09/18 00:07:26;;;;;;;27.83;20.83;;;;;;;;;;5023001;28;20033;-73
2021/09/18 00:09:53;;;;;;;34.08;20.83;;;;;;;;;;5022741;28;20493;-74
2021/09/18 00:12:20;;;;;;;25.50;19.85;;;;;;;;;;5023004;28;20033;-74
2021/09/18 00:14:46;;;;;;;27.65;19.23;;;;;;;;;;5021548;28;20037;-80
2021/09/18 00:17:12;;;;;;;37.47;20.70;;;;;;;;;;5023113;28;20078;-76
2021/09/18 00:19:39;;;;;;;32.67;19.50;;;;;;;;;;5022878;28;20034;-75
2021/09/18 00:22:05;;;;;;;26.05;18.50;;;;;;;;;;5023084;28;20059;-77
2021/09/18 00:24:32;;;;;;;28.25;17.90;;;;;;;;;;5021272;28;20029;-73
2021/09/18 00:26:58;;;;;;;27.20;17.27;;;;;;;;;;5022440;28;20037;-75
2021/09/18 00:29:24;;;;;;;34.42;19.13;;;;;;;;;;5021239;28;20048;-73
2021/09/18 00:31:50;;;;;;;31.30;19.10;;;;;;;;;;5021527;28;20048;-75
2021/09/18 00:34:16;;;;;;;29.60;18.60;;;;;;;;;;5017284;28;20037;-76
2021/09/18 00:36:42;;;;;;;27.92;18.88;;;;;;;;;;5003660;28;20485;-74
2021/09/18 00:39:09;;;;;;;24.92;17.40;;;;;;;;;;5002808;28;20422;-74
2021/09/18 00:41:35;;;;;;;21.30;16.42;;;;;;;;;;5002292;28;20648;-75
2021/09/18 00:44:01;;;;;;;24.98;16.45;;;;;;;;;;5003084;28;20040;-78
2021/09/18 00:46:27;;;;;;;28.73;16.73;;;;;;;;;;5001550;28;20093;-73
2021/09/18 00:48:53;;;;;;;27.10;16.38;;;;;;;;;;5002465;28;20394;-73
2021/09/18 00:51:20;;;;;;;31.33;19.10;;;;;;;;;;5002893;28;20065;-73
2021/09/18 00:53:46;;;;;;;26.85;18.40;;;;;;;;;;5015781;28;20041;-73
2021/09/18 00:56:13;;;;;;;29.08;17.70;;;;;;;;;;5021904;28;20040;-73
2021/09/18 00:58:39;;;;;;;29.42;18.77;;;;;;;;;;5021037;28;20100;-72
2021/09/18 01:01:06;;;;;;;27.27;18.40;;;;;;;;;;5021892;28;20715;-73
2021/09/18 01:03:32;;;;;;;25.25;18.00;;;;;;;;;;5021960;28;20028;-73
2021/09/18 01:05:59;;;;;;;31.33;17.73;;;;;;;;;;5021332;28;20029;-73
2021/09/18 01:08:26;;;;;;;23.98;17.23;;;;;;;;;;5021402;28;20029;-74
2021/09/18 01:10:52;;;;;;;24.92;17.17;;;;;;;;;;5022140;28;20504;-73
2021/09/18 01:13:20;;;;;;;26.73;18.15;;;;;;;;;;5022375;28;20114;-73
2021/09/18 01:15:47;;;;;;;26.50;19.15;;;;;;;;;;5020281;28;20069;-73
2021/09/18 01:18:13;;;;;;;30.15;20.15;;;;;;;;;;5022008;28;20060;-73
2021/09/18 01:20:41;;;;;;;32.40;20.55;;;;;;;;;;5022114;28;20033;-74
2021/09/18 01:23:09;;;;;;;28.27;19.63;;;;;;;;;;5021632;28;20034;-74
2021/09/18 01:25:36;;;;;;;32.20;20.02;;;;;;;;;;5020379;28;20082;-74
2021/09/18 01:28:03;;;;;;;33.10;20.58;;;;;;;;;;5021664;28;20040;-75
2021/09/18 01:30:30;;;;;;;31.27;20.63;;;;;;;;;;5003704;28;20547;-73
2021/09/18 01:32:58;;;;;;;27.83;19.63;;;;;;;;;;5022099;28;20040;-73
2021/09/18 01:35:24;;;;;;;27.98;20.00;;;;;;;;;;5021580;28;20028;-73
2021/09/18 01:37:51;;;;;;;30.00;19.27;;;;;;;;;;5020268;28;20045;-73
2021/09/18 01:40:20;;;;;;;30.77;20.50;;;;;;;;;;5023438;28;20402;-73
2021/09/18 01:42:47;;;;;;;28.75;19.00;;;;;;;;;;5025918;28;20021;-74
2021/09/18 01:45:14;;;;;;;24.92;18.98;;;;;;;;;;5025665;28;20053;-73
2021/09/18 01:47:48;;;;;;;29.17;18.58;;;;;;;;;;5024417;28;20028;-73
2021/09/18 01:50:34;;;;;;;31.50;20.45;;;;;;;;;;5025279;28;20721;-74
2021/09/18 01:53:02;;;;;;;30.23;20.00;;;;;;;;;;5022699;28;20116;-73
2021/09/18 01:55:28;;;;;;;30.60;18.95;;;;;;;;;;5008297;28;20056;-81
2021/09/18 01:57:55;;;;;;;29.95;19.73;;;;;;;;;;5022454;28;20408;-73
2021/09/18 02:00:21;;;;;;;28.42;19.58;;;;;;;;;;5027361;28;20563;-73
2021/09/18 02:02:48;;;;;;;29.85;20.13;;;;;;;;;;5028120;28;20194;-73
2021/09/18 02:05:16;;;;;;;31.63;18.95;;;;;;;;;;5027856;28;20075;-73
2021/09/18 02:07:42;;;;;;;33.13;20.33;;;;;;;;;;5027716;28;20087;-85
2021/09/18 02:10:10;;;;;;;29.67;20.80;;;;;;;;;;5005330;28;20461;-73
2021/09/18 02:12:36;;;;;;;33.90;20.42;;;;;;;;;;5004932;28;20121;-73
2021/09/18 02:15:03;;;;;;;33.92;21.38;;;;;;;;;;5005687;28;20391;-73
2021/09/18 02:17:29;;;;;;;32.70;21.75;;;;;;;;;;5005408;28;20113;-73
2021/09/18 02:19:55;;;;;;;35.47;20.10;;;;;;;;;;5014072;28;20036;-73
2021/09/18 02:22:22;;;;;;;32.20;20.60;;;;;;;;;;5025039;28;20131;-73
2021/09/18 02:24:48;;;;;;;30.52;20.90;;;;;;;;;;5023551;28;20384;-73
2021/09/18 02:27:15;;;;;;;31.23;21.55;;;;;;;;;;5015650;28;20034;-74
2021/09/18 02:29:41;;;;;;;32.50;21.27;;;;;;;;;;5005547;28;20049;-73
2021/09/18 02:32:08;;;;;;;29.30;20.58;;;;;;;;;;5005313;28;20034;-73
2021/09/18 02:34:34;;;;;;;30.45;21.08;;;;;;;;;;5005013;28;20037;-74
2021/09/18 02:37:00;;;;;;;29.58;20.48;;;;;;;;;;4986109;28;20030;-73
2021/09/18 02:39:26;;;;;;;34.30;21.50;;;;;;;;;;5005183;28;20508;-73
2021/09/18 02:41:52;;;;;;;30.08;20.42;;;;;;;;;;5007820;28;21385;-73
2021/09/18 02:44:19;;;;;;;33.45;22.75;;;;;;;;;;5024802;28;20473;-75
2021/09/18 02:46:45;;;;;;;33.60;22.02;;;;;;;;;;5022884;28;20971;-73
2021/09/18 02:49:11;;;;;;;44.17;23.40;;;;;;;;;;5024488;28;20041;-73
2021/09/18 02:51:38;;;;;;;26.83;21.40;;;;;;;;;;5023787;28;20034;-73
2021/09/18 02:54:04;;;;;;;31.77;22.58;;;;;;;;;;5005069;28;20041;-77
2021/09/18 02:56:30;;;;;;;36.55;22.45;;;;;;;;;;5016603;28;20137;-73
2021/09/18 02:58:56;;;;;;;32.40;21.90;;;;;;;;;;5024270;28;20033;-73
2021/09/18 03:01:23;;;;;;;30.73;22.77;;;;;;;;;;5023960;28;20034;-73
2021/09/18 03:03:49;;;;;;;30.75;21.92;;;;;;;;;;5020698;28;20091;-73
2021/09/18 03:06:15;;;;;;;38.28;22.40;;;;;;;;;;5022173;28;20028;-73
2021/09/18 03:08:41;;;;;;;33.90;21.10;;;;;;;;;;5019998;28;20750;-73
2021/09/18 03:11:07;;;;;;;30.45;23.10;;;;;;;;;;5015702;28;20030;-73
2021/09/18 03:13:35;;;;;;;37.85;21.70;;;;;;;;;;5012495;28;20036;-73
2021/09/18 03:16:02;;;;;;;29.95;20.10;;;;;;;;;;5018364;28;20037;-74
2021/09/18 03:18:28;;;;;;;29.30;20.85;;;;;;;;;;5003355;28;20709;-75
2021/09/18 03:20:54;;;;;;;30.63;19.73;;;;;;;;;;5021827;28;20068;-73
2021/09/18 03:23:20;;;;;;;25.25;19.55;;;;;;;;;;5020343;28;20091;-73
2021/09/18 03:25:47;;;;;;;30.73;21.52;;;;;;;;;;5013560;28;20490;-73
2021/09/18 03:28:13;;;;;;;31.10;19.17;;;;;;;;;;5005216;28;20113;-73
2021/09/18 03:30:39;;;;;;;30.48;18.85;;;;;;;;;;5021252;28;20113;-74
2021/09/18 03:33:05;;;;;;;21.05;17.00;;;;;;;;;;5020589;28;20029;-73
2021/09/18 03:35:31;;;;;;;28.75;19.13;;;;;;;;;;5021789;28;20087;-73
2021/09/18 03:37:57;;;;;;;29.70;17.10;;;;;;;;;;5021542;28;20021;-73
2021/09/18 03:40:24;;;;;;;26.90;19.40;;;;;;;;;;5021239;28;20033;-74
2021/09/18 03:42:50;;;;;;;30.67;20.63;;;;;;;;;;5019872;28;20060;-73
2021/09/18 03:45:16;;;;;;;28.35;21.30;;;;;;;;;;5020794;28;20046;-73
2021/09/18 03:47:42;;;;;;;34.20;20.15;;;;;;;;;;5020960;28;20032;-74
2021/09/18 03:50:09;;;;;;;27.65;21.05;;;;;;;;;;5020837;28;20501;-73
2021/09/18 03:52:36;;;;;;;32.08;20.67;;;;;;;;;;5020990;28;20746;-73
2021/09/18 03:55:02;;;;;;;27.73;21.05;;;;;;;;;;5020710;28;20021;-72
2021/09/18 03:57:28;;;;;;;36.28;21.83;;;;;;;;;;5019323;28;20025;-73
2021/09/18 03:59:54;;;;;;;34.05;21.95;;;;;;;;;;5020448;28;20021;-73
2021/09/18 04:02:21;;;;;;;28.45;22.23;;;;;;;;;;5021435;28;20033;-73
2021/09/18 04:04:47;;;;;;;35.28;23.05;;;;;;;;;;5016320;28;20030;-73
2021/09/18 04:07:13;;;;;;;30.42;21.02;;;;;;;;;;5000990;28;20716;-73
2021/09/18 04:09:40;;;;;;;28.90;20.55;;;;;;;;;;4997514;28;20037;-80
2021/09/18 04:12:06;;;;;;;25.00;14.52;;;;;;;;;;5000501;28;20057;-73
2021/09/18 04:14:32;;;;;;;19.02;9.15;;;;;;;;;;5001354;28;20064;-73
2021/09/18 04:16:58;;;;;;;19.60;12.70;;;;;;;;;;5000779;28;20028;-73
2021/09/18 04:19:24;;;;;;;34.10;16.20;;;;;;;;;;5001260;28;20034;-73
2021/09/18 04:21:50;;;;;;;20.27;14.13;;;;;;;;;;4999060;28;20178;-73
2021/09/18 04:24:17;;;;;;;22.17;13.02;;;;;;;;;;5001032;28;20040;-74
2021/09/18 04:26:43;;;;;;;27.17;13.48;;;;;;;;;;5018882;28;20029;-73
2021/09/18 04:29:09;;;;;;;25.35;13.45;;;;;;;;;;5018975;28;20042;-73
2021/09/18 04:31:35;;;;;;;31.95;18.40;;;;;;;;;;5010401;28;20026;-73
2021/09/18 04:34:01;;;;;;;25.33;14.55;;;;;;;;;;5017048;28;20109;-73
2021/09/18 04:36:27;;;;;;;20.15;10.75;;;;;;;;;;5012334;28;20032;-73
2021/09/18 04:38:53;;;;;;;18.23;9.95;;;;;;;;;;5020520;28;20037;-73
2021/09/18 04:41:20;;;;;;;24.73;13.85;;;;;;;;;;5019751;28;20488;-73
2021/09/18 04:43:49;;;;;;;28.65;15.15;;;;;;;;;;5018682;28;20029;-73
2021/09/18 04:46:15;;;;;;;25.33;15.18;;;;;;;;;;5017960;28;20393;-74
2021/09/18 04:48:41;;;;;;;26.92;15.07;;;;;;;;;;5008085;28;20646;-74
2021/09/18 04:51:07;;;;;;;25.95;15.57;;;;;;;;;;5019967;28;20022;-73
2021/09/18 04:53:33;;;;;;;22.50;16.25;;;;;;;;;;5019693;28;20034;-73
2021/09/18 04:55:59;;;;;;;21.48;15.25;;;;;;;;;;5018629;28;20029;-73
2021/09/18 04:58:26;;;;;;;24.77;16.10;;;;;;;;;;5018739;28;20081;-78
2021/09/18 05:00:52;;;;;;;22.48;16.63;;;;;;;;;;5003504;28;20034;-74
2021/09/18 05:03:18;;;;;;;18.98;13.05;;;;;;;;;;5000249;28;20523;-74
2021/09/18 05:05:44;;;;;;;23.63;12.43;;;;;;;;;;5010158;28;20470;-74
2021/09/18 05:08:11;;;;;;;17.95;10.88;;;;;;;;;;5007378;28;20492;-73
2021/09/18 05:10:37;;;;;;;16.17;11.00;;;;;;;;;;5008318;28;20041;-75
2021/09/18 05:13:03;;;;;;;21.75;10.82;;;;;;;;;;5030547;28;20432;-76
2021/09/18 05:15:30;;;;;;;19.95;11.05;;;;;;;;;;4999146;28;20025;-78
2021/09/18 05:17:56;;;;;;;17.05;11.10;;;;;;;;;;5025909;28;20056;-74
2021/09/18 05:20:22;;;;;;;22.45;12.65;;;;;;;;;;5020635;28;20086;-74
2021/09/18 05:22:49;;;;;;;20.83;10.93;;;;;;;;;;5030562;28;20683;-75
2021/09/18 05:25:15;;;;;;;23.88;11.63;;;;;;;;;;5020795;28;20029;-75
2021/09/18 05:27:41;;;;;;;21.42;10.98;;;;;;;;;;5018694;28;20038;-77
2021/09/18 05:30:08;;;;;;;22.83;11.50;;;;;;;;;;5020769;28;20037;-75
2021/09/18 05:32:34;;;;;;;17.42;10.50;;;;;;;;;;5011525;28;20030;-75
2021/09/18 05:35:00;;;;;;;19.85;10.05;;;;;;;;;;5036639;28;20029;-74
2021/09/18 05:37:27;;;;;;;20.90;9.50;;;;;;;;;;5037019;28;20108;-77
2021/09/18 05:39:53;;;;;;;20.38;9.15;;;;;;;;;;5001662;28;20033;-73
2021/09/18 05:42:19;;;;;;;21.92;10.10;;;;;;;;;;4999825;28;20097;-74
2021/09/18 05:44:45;;;;;;;19.83;10.10;;;;;;;;;;5001668;28;20045;-74
2021/09/18 05:47:11;;;;;;;22.40;9.35;;;;;;;;;;5015708;28;20040;-78
2021/09/18 05:49:37;;;;;;;17.40;9.40;;;;;;;;;;5007090;28;20390;-72
2021/09/18 05:52:04;;;;;;;20.13;9.35;;;;;;;;;;4989916;28;20080;-75
2021/09/18 05:54:30;;;;;;;18.67;9.40;;;;;;;;;;5026776;28;20525;-73
2021/09/18 05:56:56;;;;;;;20.45;11.10;;;;;;;;;;5008985;28;20415;-75
2021/09/18 05:59:23;;;;;;;18.38;9.23;;;;;;;;;;5021209;28;20083;-76
2021/09/18 06:01:49;;;;;;;20.48;9.27;;;;;;;;;;5022583;28;20861;-75
2021/09/18 06:04:15;;;;;;;19.55;10.02;;;;;;;;;;5014522;28;20053;-76
2021/09/18 06:06:41;;;;;;;22.98;10.35;;;;;;;;;;5018816;28;20034;-75
2021/09/18 06:09:08;;;;;;;18.73;9.45;;;;;;;;;;5019650;28;20035;-74
2021/09/18 06:11:34;;;;;;;23.45;10.30;;;;;;;;;;5033889;28;20022;-74
2021/09/18 06:14:00;;;;;;;20.42;10.45;;;;;;;;;;5019245;28;20044;-75
2021/09/18 06:16:26;;;;;;;19.42;10.43;;;;;;;;;;5008876;28;20517;-76
2021/09/18 06:18:53;;;;;;;20.63;9.50;;;;;;;;;;5001091;28;20042;-74
2021/09/18 06:21:19;;;;;;;17.42;10.57;;;;;;;;;;5001413;28;20030;-76
2021/09/18 06:23:46;;;;;;;20.42;10.23;;;;;;;;;;5010374;28;20370;-75
2021/09/18 06:26:14;;;;;;;16.75;10.38;;;;;;;;;;5018793;28;20033;-75
2021/09/18 06:28:40;;;;;;;19.38;9.70;;;;;;;;;;5024590;28;20152;-76
2021/09/18 06:31:06;;;;;;;22.15;10.40;;;;;;;;;;5023815;28;20049;-75
2021/09/18 06:33:33;;;;;;;22.85;11.25;;;;;;;;;;5023952;28;20037;-75
2021/09/18 06:36:00;;;;;;;19.95;10.05;;;;;;;;;;5023641;28;20033;-75
2021/09/18 06:38:26;;;;;;;22.38;10.75;;;;;;;;;;5024348;28;20086;-74
2021/09/18 06:40:53;;;;;;;17.02;10.88;;;;;;;;;;5017809;28;20024;-75
2021/09/18 06:43:22;;;;;;;19.00;12.60;;;;;;;;;;5009097;28;20029;-73
2021/09/18 06:45:48;;;;;;;22.25;12.15;;;;;;;;;;5004181;28;20537;-75
2021/09/18 06:48:15;;;;;;;17.90;11.88;;;;;;;;;;5004073;28;20112;-75
2021/09/18 06:50:41;;;;;;;16.65;10.35;;;;;;;;;;5006364;28;20033;-72
2021/09/18 06:53:08;;;;;;;14.60;10.48;;;;;;;;;;5023406;28;20021;-73
2021/09/18 06:55:35;;;;;;;16.65;10.02;;;;;;;;;;5020670;28;20056;-74
2021/09/18 06:58:01;;;;;;;20.00;10.90;;;;;;;;;;5010232;28;20023;-76
2021/09/18 07:00:30;;;;;;;21.52;10.45;;;;;;;;;;5009556;28;20661;-75
2021/09/18 07:02:57;;;;;;;23.92;11.15;;;;;;;;;;5019773;28;20052;-74
2021/09/18 07:05:23;;;;;;;18.42;10.70;;;;;;;;;;5009739;28;20807;-75
2021/09/18 07:07:49;;;;;;;18.27;10.20;;;;;;;;;;5001764;28;20466;-74
2021/09/18 07:10:15;;;;;;;15.40;10.63;;;;;;;;;;5001037;28;20120;-73
2021/09/18 07:12:42;;;;;;;18.67;10.07;;;;;;;;;;5001850;28;20022;-73
2021/09/18 07:15:08;;;;;;;20.25;9.60;;;;;;;;;;5002090;28;20026;-73
2021/09/18 07:17:34;;;;;;;15.18;9.48;;;;;;;;;;5011395;28;20025;-74
2021/09/18 07:20:02;;;;;;;23.77;9.30;;;;;;;;;;5020606;28;20029;-72
2021/09/18 07:22:28;;;;;;;21.60;9.55;;;;;;;;;;5002795;28;20030;-75
2021/09/18 07:24:55;;;;;;;29.50;10.52;;;;;;;;;;5001228;28;20032;-73
2021/09/18 07:27:21;;;;;;;17.38;9.90;;;;;;;;;;5000121;28;20026;-72
2021/09/18 07:29:51;;;;;;;18.55;9.60;;;;;;;;;;5001309;28;20038;-76
2021/09/18 07:32:18;;;;;;;18.17;10.45;;;;;;;;;;5000781;28;20076;-73
2021/09/18 07:34:44;;;;;;;22.80;11.13;;;;;;;;;;5000822;28;20663;-73
2021/09/18 07:37:10;;;;;;;17.92;10.80;;;;;;;;;;4999285;28;20026;-74
2021/09/18 07:39:36;;;;;;;17.85;11.20;;;;;;;;;;5000846;28;20030;-74
2021/09/18 07:42:03;;;;;;;20.40;10.75;;;;;;;;;;5000203;28;20030;-74
2021/09/18 07:44:30;;;;;;;24.98;11.60;;;;;;;;;;5000224;28;20025;-73
2021/09/18 07:46:56;;;;;;;19.98;10.93;;;;;;;;;;4999755;28;20037;-73
2021/09/18 07:49:22;;;;;;;20.70;11.07;;;;;;;;;;5000738;28;20057;-74
2021/09/18 07:51:49;;;;;;;16.77;10.38;;;;;;;;;;5000845;28;20054;-73
2021/09/18 07:54:15;;;;;;;18.70;11.05;;;;;;;;;;5010674;28;20018;-74
2021/09/18 07:56:41;;;;;;;19.35;11.68;;;;;;;;;;5018845;28;20025;-73
2021/09/18 07:59:07;;;;;;;21.10;11.30;;;;;;;;;;5020777;28;20064;-73
2021/09/18 08:01:33;;;;;;;15.20;10.00;;;;;;;;;;5020439;28;20099;-74
2021/09/18 08:04:03;;;;;;;15.88;10.02;;;;;;;;;;5020015;28;20025;-73
2021/09/18 08:06:34;;;;;;;17.63;10.43;;;;;;;;;;5017936;28;20068;-74
2021/09/18 08:09:01;;;;;;;14.38;10.07;;;;;;;;;;5020120;28;20033;-73
2021/09/18 08:11:28;;;;;;;18.20;9.95;;;;;;;;;;5019794;28;20379;-73
2021/09/18 08:13:55;;;;;;;14.75;9.02;;;;;;;;;;5020393;28;20108;-73
2021/09/18 08:16:22;;;;;;;19.00;10.00;;;;;;;;;;5019964;28;20128;-73
2021/09/18 08:18:48;;;;;;;17.40;9.05;;;;;;;;;;5020092;28;20108;-73
2021/09/18 08:21:15;;;;;;;21.35;10.27;;;;;;;;;;5018075;28;20028;-74
2021/09/18 08:23:41;;;;;;;17.60;10.00;;;;;;;;;;5018150;28;20036;-73
2021/09/18 08:26:09;;;;;;;15.07;9.18;;;;;;;;;;5000002;28;20036;-73
2021/09/18 08:28:35;;;;;;;21.67;9.25;;;;;;;;;;5008319;28;20037;-74
2021/09/18 08:31:01;;;;;;;12.98;8.52;;;;;;;;;;5001579;28;20033;-73
2021/09/18 08:33:27;;;;;;;16.27;8.88;;;;;;;;;;5019937;28;20389;-73
2021/09/18 08:35:54;;;;;;;12.73;7.88;;;;;;;;;;4999784;28;20663;-73
2021/09/18 08:38:22;;;;;;;14.10;8.25;;;;;;;;;;5000421;28;20018;-74
2021/09/18 08:40:50;;;;;;;15.85;8.23;;;;;;;;;;5017185;28;20039;-73
2021/09/18 08:43:17;;;;;;;17.95;7.97;;;;;;;;;;5020185;28;20056;-74
2021/09/18 08:45:43;;;;;;;17.25;8.20;;;;;;;;;;5021141;28;20045;-74
2021/09/18 08:48:09;;;;;;;12.95;8.25;;;;;;;;;;5016237;28;20109;-73
2021/09/18 08:50:36;;;;;;;18.25;9.20;;;;;;;;;;5021588;28;20029;-73
2021/09/18 08:53:02;;;;;;;15.43;9.10;;;;;;;;;;5022068;28;20032;-73
2021/09/18 08:55:29;;;;;;;16.17;8.93;;;;;;;;;;5019786;28;20037;-74
2021/09/18 08:57:55;;;;;;;15.57;9.00;;;;;;;;;;5021870;28;20461;-73
2021/09/18 09:00:33;;;;;;;12.02;8.10;;;;;;;;;;5021654;28;20060;-73
2021/09/18 09:03:01;;;;;;;11.45;6.03;;;;;;;;;;5011611;28;20788;-78
2021/09/18 09:05:28;;;;;;;8.27;6.20;;;;;;;;;;5010234;28;20357;-78
2021/09/18 09:08:11;;;;;;;10.13;5.53;;;;;;;;;;5015803;28;20512;-78
2021/09/18 09:10:38;;;;;;;12.32;5.97;;;;;;;;;;5019189;28;20140;-77
2021/09/18 09:13:08;;;;;;;14.45;6.40;;;;;;;;;;5037121;28;20052;-78
2021/09/18 09:15:35;;;;;;;14.07;6.30;;;;;;;;;;5022542;28;20026;-79
2021/09/18 09:18:16;;;;;;;11.30;6.50;;;;;;;;;;5010076;28;20029;-77
2021/09/18 09:20:42;;;;;;;15.02;7.15;;;;;;;;;;5017587;28;20043;-77
2021/09/18 09:23:14;;;;;;;8.73;5.68;;;;;;;;;;5005836;28;20064;-78
2021/09/18 09:25:41;;;;;;;9.75;6.22;;;;;;;;;;5018211;28;20052;-77
2021/09/18 09:28:26;;;;;;;11.25;6.35;;;;;;;;;;5018851;28;20087;-78
2021/09/18 09:30:53;;;;;;;12.32;6.28;;;;;;;;;;5011148;28;20041;-77
2021/09/18 09:33:20;;;;;;;10.68;6.47;;;;;;;;;;5005056;28;20105;-78
2021/09/18 09:35:46;;;;;;;11.70;6.47;;;;;;;;;;5014344;28;20129;-78
2021/09/18 09:38:12;;;;;;;12.90;6.40;;;;;;;;;;5015386;28;20413;-78
2021/09/18 09:40:40;;;;;;;9.45;5.88;;;;;;;;;;5037903;28;20055;-78
2021/09/18 09:43:09;;;;;;;13.13;6.78;;;;;;;;;;5018182;28;20147;-78
2021/09/18 09:45:35;;;;;;;10.27;6.10;;;;;;;;;;5018923;28;20037;-78
2021/09/18 09:48:16;;;;;;;13.88;6.55;;;;;;;;;;5009296;28;20041;-77
2021/09/18 09:50:44;;;;;;;13.02;6.78;;;;;;;;;;5007551;28;20094;-78
2021/09/18 09:53:24;;;;;;;9.82;6.85;;;;;;;;;;5036284;28;20072;-78
2021/09/18 09:55:50;;;;;;;11.93;6.85;;;;;;;;;;5023520;28;20556;-78
2021/09/18 09:58:20;;;;;;;11.05;6.90;;;;;;;;;;5039273;28;20124;-78
2021/09/18 10:00:49;;;;;;;17.17;8.13;;;;;;;;;;5038030;28;21091;-78
2021/09/18 10:03:16;;;;;;;13.02;7.57;;;;;;;;;;5041963;28;20025;-79
2021/09/18 10:05:42;;;;;;;11.10;6.80;;;;;;;;;;5042683;28;20056;-77
2021/09/18 10:08:11;;;;;;;12.43;6.93;;;;;;;;;;5042306;28;20021;-79
2021/09/18 10:10:40;;;;;;;12.57;7.15;;;;;;;;;;5019957;28;20132;-77
2021/09/18 10:13:07;;;;;;;14.50;7.40;;;;;;;;;;5015548;28;20394;-78
2021/09/18 10:15:33;;;;;;;10.55;7.22;;;;;;;;;;5017834;28;20025;-77
2021/09/18 10:18:01;;;;;;;13.50;7.57;;;;;;;;;;5023405;28;20104;-78
2021/09/18 10:23:18;;;;;;;16.92;9.48;;;;;;;;;;5019084;28;20526;-76
2021/09/18 10:25:47;;;;;;;14.98;10.57;;;;;;;;;;5026747;28;20751;-78
2021/09/18 10:28:26;;;;;;;13.68;10.98;;;;;;;;;;5027445;28;20078;-76
2021/09/18 10:30:53;;;;;;;15.98;11.52;;;;;;;;;;5041025;28;20036;-77
2021/09/18 10:33:27;;;;;;;11.55;9.63;;;;;;;;;;5028076;28;20525;-79
2021/09/18 10:35:55;;;;;;;13.93;10.32;;;;;;;;;;5021725;28;20041;-76
2021/09/18 10:38:22;;;;;;;19.45;11.02;;;;;;;;;;5024249;28;20048;-77
2021/09/18 10:40:56;;;;;;;14.70;10.45;;;;;;;;;;5023016;28;20029;-75
2021/09/18 10:43:29;;;;;;;11.55;9.90;;;;;;;;;;5024329;28;20029;-76
2021/09/18 10:45:56;;;;;;;15.98;10.20;;;;;;;;;;5029666;28;20080;-75
2021/09/18 10:48:57;;;;;;;16.15;10.88;;;;;;;;;;5024116;28;20021;-74
2021/09/18 10:51:54;;;;;;;16.50;10.73;;;;;;;;;;4989761;28;20317;-75
2021/09/18 10:54:20;;;;;;;14.85;10.63;;;;;;;;;;5012178;28;20077;-74
2021/09/18 10:57:13;;;;;;;18.25;10.80;;;;;;;;;;5024225;28;20045;-76
2021/09/18 10:59:41;;;;;;;15.05;11.43;;;;;;;;;;5021424;28;20168;-76
2021/09/18 11:02:26;;;;;;;14.02;10.32;;;;;;;;;;5024333;28;20079;-74
2021/09/18 11:04:52;;;;;;;16.05;10.65;;;;;;;;;;5022295;28;20033;-75
2021/09/18 11:07:38;;;;;;;15.57;9.65;;;;;;;;;;5043347;28;20027;-76
2021/09/18 11:10:05;;;;;;;16.05;9.60;;;;;;;;;;5010203;28;20053;-75
2021/09/18 11:12:31;;;;;;;17.13;9.32;;;;;;;;;;5022652;28;20056;-76
2021/09/18 11:15:01;;;;;;;14.63;9.23;;;;;;;;;;5022653;28;20040;-74
2021/09/18 11:17:34;;;;;;;14.05;10.38;;;;;;;;;;5022490;28;20030;-74
2021/09/18 11:20:17;;;;;;;11.80;9.32;;;;;;;;;;5015050;28;20381;-77
2021/09/18 11:22:43;;;;;;;16.52;10.45;;;;;;;;;;5020836;28;20095;-75
2021/09/18 11:25:43;;;;;;;18.55;10.45;;;;;;;;;;5016931;28;20426;-74
2021/09/18 11:28:10;;;;;;;14.88;10.75;;;;;;;;;;4959417;28;20037;-76
2021/09/18 11:30:47;;;;;;;13.20;10.85;;;;;;;;;;5021139;28;20041;-74
2021/09/18 11:33:16;;;;;;;13.45;11.02;;;;;;;;;;5020919;28;20029;-74
2021/09/18 11:35:51;;;;;;;21.00;11.25;;;;;;;;;;5020598;28;20029;-74
2021/09/18 11:38:20;;;;;;;15.07;10.40;;;;;;;;;;5009017;28;20065;-75
2021/09/18 11:40:47;;;;;;;15.63;10.18;;;;;;;;;;5010106;28;20025;-74
2021/09/18 11:43:13;;;;;;;13.40;10.00;;;;;;;;;;5021002;28;20022;-74
2021/09/18 11:45:39;;;;;;;19.98;11.60;;;;;;;;;;5020992;28;20581;-74
2021/09/18 11:48:09;;;;;;;15.85;9.80;;;;;;;;;;5021059;28;20029;-74
2021/09/18 11:50:39;;;;;;;14.85;9.82;;;;;;;;;;5020453;28;20029;-75
2021/09/18 11:53:09;;;;;;;11.63;9.90;;;;;;;;;;5019061;28;20030;-75
2021/09/18 11:55:38;;;;;;;11.90;9.15;;;;;;;;;;5005802;28;20418;-75
2021/09/18 11:58:13;;;;;;;17.15;10.68;;;;;;;;;;5011827;28;20034;-76
2021/09/18 12:00:44;;;;;;;13.15;9.82;;;;;;;;;;4998832;28;20026;-76
2021/09/18 12:03:11;;;;;;;15.80;10.48;;;;;;;;;;5012763;28;20088;-76
2021/09/18 12:05:37;;;;;;;11.95;9.85;;;;;;;;;;5015943;28;20493;-76
2021/09/18 12:08:05;;;;;;;13.18;10.25;;;;;;;;;;5017282;28;20036;-76
2021/09/18 12:10:31;;;;;;;11.93;9.90;;;;;;;;;;5008723;28;20034;-76
2021/09/18 12:13:00;;;;;;;14.07;9.65;;;;;;;;;;5016415;28;20037;-76
2021/09/18 12:15:44;;;;;;;16.80;10.15;;;;;;;;;;5020310;28;20507;-77
2021/09/18 12:18:27;;;;;;;16.42;10.30;;;;;;;;;;5022308;28;20030;-76
2021/09/18 12:20:58;;;;;;;19.30;10.05;;;;;;;;;;5022899;28;20057;-77
2021/09/18 12:23:24;;;;;;;15.98;10.60;;;;;;;;;;5022265;28;20025;-76
2021/09/18 12:25:55;;;;;;;16.90;9.82;;;;;;;;;;5010824;28;20386;-77
2021/09/18 12:28:21;;;;;;;11.47;9.47;;;;;;;;;;5040862;28;20021;-76
2021/09/18 12:30:47;;;;;;;16.25;9.98;;;;;;;;;;5042211;28;20332;-78
2021/09/18 12:33:16;;;;;;;12.07;10.07;;;;;;;;;;5041704;28;20548;-77
2021/09/18 12:35:43;;;;;;;16.85;10.10;;;;;;;;;;5014011;28;20076;-76
2021/09/18 12:38:10;;;;;;;13.55;9.77;;;;;;;;;;5039126;28;20021;-76
2021/09/18 12:40:38;;;;;;;14.65;10.25;;;;;;;;;;5027001;28;20027;-77
2021/09/18 12:43:13;;;;;;;18.02;10.80;;;;;;;;;;5040713;28;20025;-77
2021/09/18 12:45:40;;;;;;;13.73;9.73;;;;;;;;;;5021869;28;20045;-76
2021/09/18 12:48:09;;;;;;;13.00;9.75;;;;;;;;;;5020560;28;20029;-77
2021/09/18 12:50:45;;;;;;;14.88;9.73;;;;;;;;;;5021529;28;20041;-76
2021/09/18 12:53:26;;;;;;;13.60;9.48;;;;;;;;;;5021264;28;20057;-76
2021/09/18 12:56:11;;;;;;;11.20;9.77;;;;;;;;;;5021514;28;20063;-77
2021/09/18 12:58:38;;;;;;;14.70;9.52;;;;;;;;;;5021604;28;20029;-76
2021/09/18 13:01:05;;;;;;;16.80;9.18;;;;;;;;;;5020273;28;20021;-76
2021/09/18 13:03:32;;;;;;;12.80;8.85;;;;;;;;;;5021340;28;20028;-77
2021/09/18 13:06:04;;;;;;;12.45;8.68;;;;;;;;;;5021112;28;20116;-76
2021/09/18 13:08:49;;;;;;;14.75;8.32;;;;;;;;;;5003639;28;20037;-77
2021/09/18 13:11:21;;;;;;;15.27;8.27;;;;;;;;;;5021254;28;20087;-77
2021/09/18 13:13:47;;;;;;;14.13;8.40;;;;;;;;;;5021134;28;20079;-77
2021/09/18 13:16:14;;;;;;;13.15;8.60;;;;;;;;;;5015918;28;20467;-77
2021/09/18 13:18:41;;;;;;;15.88;8.20;;;;;;;;;;5021208;28;20045;-77
2021/09/18 13:21:07;;;;;;;10.60;7.45;;;;;;;;;;5021563;28;20027;-77
2021/09/18 13:23:34;;;;;;;11.57;8.23;;;;;;;;;;5015352;28;20121;-76
2021/09/18 13:26:01;;;;;;;13.60;8.40;;;;;;;;;;5001409;28;20360;-76
2021/09/18 13:28:28;;;;;;;14.20;8.27;;;;;;;;;;5000276;28;20030;-77
2021/09/18 13:30:55;;;;;;;14.20;8.05;;;;;;;;;;5020030;28;20124;-77
2021/09/18 13:33:21;;;;;;;14.10;8.23;;;;;;;;;;5019577;28;20021;-77
2021/09/18 13:35:48;;;;;;;15.38;9.10;;;;;;;;;;5021753;28;20033;-77
2021/09/18 13:38:14;;;;;;;11.82;9.07;;;;;;;;;;5025049;28;20127;-77
2021/09/18 13:40:40;;;;;;;14.10;9.18;;;;;;;;;;5024110;28;20025;-77
2021/09/18 13:43:07;;;;;;;11.88;8.02;;;;;;;;;;5024941;28;20109;-77
2021/09/18 13:45:33;;;;;;;10.38;8.40;;;;;;;;;;5022758;28;20117;-76
2021/09/18 13:47:59;;;;;;;15.38;9.25;;;;;;;;;;5025285;28;20612;-76
2021/09/18 13:50:25;;;;;;;17.50;9.15;;;;;;;;;;5021340;28;20057;-77
2021/09/18 13:52:52;;;;;;;13.63;10.20;;;;;;;;;;5022482;28;20028;-77
2021/09/18 13:55:18;;;;;;;13.10;8.82;;;;;;;;;;5022721;28;20068;-76
2021/09/18 13:57:44;;;;;;;14.30;9.63;;;;;;;;;;5023387;28;20033;-76
2021/09/18 14:00:10;;;;;;;15.00;9.82;;;;;;;;;;5021941;28;20136;-74
2021/09/18 14:02:36;;;;;;;17.48;10.95;;;;;;;;;;5022139;28;20025;-75
2021/09/18 14:05:03;;;;;;;19.05;10.48;;;;;;;;;;5023370;28;20906;-76
2021/09/18 14:07:29;;;;;;;15.32;10.52;;;;;;;;;;5024731;28;20034;-76
2021/09/18 14:09:56;;;;;;;14.82;10.60;;;;;;;;;;5005076;28;20030;-75
2021/09/18 14:12:23;;;;;;;15.48;10.32;;;;;;;;;;5024111;28;20067;-76
2021/09/18 14:14:49;;;;;;;14.68;10.65;;;;;;;;;;5023679;28;20075;-74
2021/09/18 14:17:16;;;;;;;12.77;10.32;;;;;;;;;;5023778;28;20027;-75
2021/09/18 14:19:42;;;;;;;14.52;11.05;;;;;;;;;;5019772;28;20662;-76
2021/09/18 14:22:08;;;;;;;15.55;11.02;;;;;;;;;;5024219;28;20135;-77
2021/09/18 14:24:35;;;;;;;14.13;11.13;;;;;;;;;;5024035;28;20040;-77
2021/09/18 14:27:01;;;;;;;16.38;11.15;;;;;;;;;;5024582;28;20051;-77